Science Garden, Philippines

10:05 PM PHT on September 30, 2014 (GMT +0800)
Loyola Heights | Change Station
CLOSE
Current Station
Personal Weather Station
Location: Quezon City, NCR
Elevation: 187 ft
Nearby Weather Stations

Elev 187 ft 14.64 °N, 121.08 °E | Updated 12 minutes ago

Light Rain Showers
Light Showers Rain
80.3 °F
Feels Like 86 °F
N
1.0
Wind Variable Wind from SW

Today
High -- | Low -- °F
--% Chance of Precip.
Yesterday
High -- | Low -- °F
Precip. -- in
5:45 AM 5:46 PM
Waxing Crescent, 37% visible
Pressure 29.80 in
Visibility 5.6 miles
Clouds Few 2200 ft
Scattered Clouds 2300 ft
Overcast 9000 ft
Heat Index 86 °F
Dew Point 77 °F
Humidity 88%
Rainfall 0.06 in
Snow Depth Not available.
UV 0.0 out of 12
Pollen Not available.
Air Quality Not available.
Flu Activity Not available.
METAR RPLL 301300Z 12007KT 080V150 9000 -SHRA FEW022CB SCT023 OVC090 28/26 Q1009 TEMPO 8000 TSRA RMK A2980 CB NE

More Conditions Fewer Conditions

Pressure 29.80 in
Visibility 5.6 miles
Clouds Few 2200 ft
Scattered Clouds 2300 ft
Overcast 9000 ft
Heat Index 86 °F
Dew Point 77 °F
Humidity 88%
Rainfall 0.06 in
Snow Depth Not available.
UV 0.0 out of 12
Pollen Not available.
Air Quality Not available.
Flu Activity Not available.
METAR RPLL 301300Z 12007KT 080V150 9000 -SHRA FEW022CB SCT023 OVC090 28/26 Q1009 TEMPO 8000 TSRA RMK A2980 CB NE

More Conditions Fewer Conditions

10-Day Weather Forecast

Almanac

Astronomy

Sep. 30, 2014 Rise Set
Actual Time 5:45 AM PHT 5:46 PM PHT
Civil Twilight 5:24 AM PHT 6:07 PM PHT
Nautical Twilight 4:59 AM PHT 6:32 PM PHT
Astronomical Twilight 4:34 AM PHT 6:57 PM PHT
Moon 10:39 AM PHT 10:24 PM PHT
Length of Visible Light 12h 43m
Length of Day
12h 00m
Tomorrow will be 0m 49s shorter.
Waxing Crescent, 37% of the Moon is Illuminated
Today
Waxing Crescent
Oct 1
First Quarter
Oct 8
Full
Oct 15
Last Quarter
Oct 23
New

Yesterday's Extremes

Country Highs Country Lows

Community

WunderPhotos

Upload Photos

1,757,643 photos uploaded!

Nearby

Snow Depth

Not available.

Earthquake Activity

City Distance Mag. Time & Date
No recent earthquake activity has been reported nearby.
Minimum magnitude displayed is 2.5.

Coastal Water Temperatures

Place Temperature
No Stations Reporting

Nearby Weather Stations